Terminal Aerodrome Forecast
Issued by NWS

Home | Current Version | Previous Version | Text Only | Print | Product List | Glossary On
Versions: 1 2 3 4 5 6 7 8 9 10 11 12 13 14 15 16 17 18 19 20 21 22 23 24
687
FTUS43 KDLH 061421 AAB
TAFBRD
TAF AMD
KBRD 061421Z 0614/0712 19007KT 4SM BR SCT005 BKN120
     FM061600 20010KT P6SM BKN100
     FM062200 20012KT P6SM SCT015 OVC040 WS020/25035KT
      TEMPO 0622/0702 2SM -SN BKN012
     FM070200 22014KT P6SM VCSH OVC012 WS020/28040KT
     FM071000 24014KT 6SM -SN OVC010 WS020/28040KT=

USA.gov is the U.S. government's official web portal to all federal, state and local government web resources and services.